This is the latest recevied weather packets stored in our database for station/object KC4JES. If no packets are shown the sender has not sent any weather packets the latest 10 day(s).
| Time | Temp. | Humidity | Pressure | Rain* | Wind** | Luminosity | Snow |
|---|---|---|---|---|---|---|---|
| 1778177520 | 32.22° C | 58% | 1014.6 hPa | 0 mm | - | 890 W/m² | - |
| 1778177216 | 31.67° C | 60% | 1014.9 hPa | 0 mm | - | 978 W/m² | - |
| 1778176914 | 31.67° C | 61% | 1014.9 hPa | 0 mm | - | 870 W/m² | - |
| 1778176609 | 31.11° C | 63% | 1015.3 hPa | 0 mm | - | 944 W/m² | - |
| 1778176307 | 30.56° C | 62% | 1015.1 hPa | 0 mm | - | 677 W/m² | - |
| 1778176004 | 30.56° C | 62% | 1015.1 hPa | 0 mm | - | 840 W/m² | - |
| 1778175702 | 30° C | 62% | 1015.2 hPa | 0 mm | - | 714 W/m² | - |
| 1778175399 | 30.56° C | 59% | 1015.3 hPa | 0 mm | - | 877 W/m² | - |
| 1778175096 | 31.11° C | 59% | 1015.4 hPa | 0 mm | - | 859 W/m² | - |
| 1778174792 | 31.11° C | 57% | 1015.2 hPa | 0 mm | - | 950 W/m² | - |
| 1778174490 | 31.67° C | 56% | 1015.5 hPa | 0 mm | - | 600 W/m² | - |
| 1778174184 | 32.78° C | 53% | 1015.2 hPa | 0 mm | - | 557 W/m² | - |
| 1778173881 | 34.44° C | 39% | 1014.9 hPa | 0 mm | - | 248 W/m² | - |
| 1778173579 | 33.89° C | 40% | 1014.9 hPa | 0 mm | - | 285 W/m² | - |
| 1778173275 | 33.33° C | 41% | 1015.1 hPa | 0 mm | - | 154 W/m² | - |
| 1778172971 | 33.33° C | 42% | 1014.9 hPa | 0 mm | - | 143 W/m² | - |
| 1778172668 | 33.33° C | 41% | 1015 hPa | 0 mm | - | 130 W/m² | - |
| 1778172364 | 33.33° C | 44% | 1015.1 hPa | 0 mm | - | 107 W/m² | - |
| 1778172061 | 33.33° C | 41% | 1015 hPa | 0 mm | - | 105 W/m² | - |
| 1778171758 | 33.33° C | 42% | 1015.1 hPa | 0 mm | - | 118 W/m² | - |
| 1778171456 | 32.78° C | 45% | 1015.1 hPa | 0 mm | - | 130 W/m² | - |
| 1778171156 | 32.78° C | 46% | 1015.2 hPa | 0 mm | - | 123 W/m² | - |
| 1778170853 | 32.22° C | 45% | 1015.3 hPa | 0 mm | - | 105 W/m² | - |
| 1778170549 | 32.22° C | 45% | 1015.4 hPa | 0 mm | - | 79 W/m² | - |
| 1778170246 | 32.22° C | 51% | 1015.3 hPa | 0 mm | - | 78 W/m² | - |
* Rain latest hour (hover to see other rain measurements)
** Current wind speed in m/s (hover to see current wind gust speed)